Terminal Aerodrome Forecast
Issued by NWS

Home | Current Version | Previous Version | Text Only | Print | Product List | Glossary On
Versions: 1 2 3 4 5 6 7 8 9 10 11 12 13 14
799
FTUS44 KLIX 141725
TAFMCB
TAF
KMCB 141725Z 1418/1518 16014KT P6SM SCT060
     FM150100 16006KT P6SM BKN060
     FM150700 16006KT P6SM OVC008
     FM150800 15006KT 5SM BR OVC005
     FM151300 18006KT P6SM OVC008
     FM151400 19006KT 2SM SHRA OVC011=

USA.gov is the U.S. government's official web portal to all federal, state and local government web resources and services.